Time;durP1;ratioP1;P1;durP2;ratioP2;P2;SDS_P1;SDS_P2;PMS_P1;PMS_P2;Temp;Humidity;BMP_temperature;BMP_pressure;BME280_temperature;BME280_humidity;BME280_pressure;Samples;Min_cycle;Max_cycle;Signal;HPM_P1;HPM_P2
2021/12/30 00:01:45;;;;;;;9.52;7.07;;;5.60;99.90;;;;;;5091363;28;20028;-55
2021/12/30 00:04:11;;;;;;;12.52;8.60;;;5.50;99.90;;;;;;5092543;28;20111;-55
2021/12/30 00:06:40;;;;;;;10.20;8.30;;;5.50;99.90;;;;;;5092434;28;20027;-52
2021/12/30 00:09:11;;;;;;;13.35;7.97;;;5.60;99.90;;;;;;5092863;28;20069;-53
2021/12/30 00:11:38;;;;;;;10.73;8.48;;;5.60;99.90;;;;;;5092614;28;20028;-55
2021/12/30 00:14:04;;;;;;;10.65;8.50;;;5.60;99.90;;;;;;5093357;28;20287;-54
2021/12/30 00:16:30;;;;;;;11.10;8.20;;;5.60;99.90;;;;;;5093193;28;20110;-53
2021/12/30 00:18:56;;;;;;;11.50;9.02;;;5.60;99.90;;;;;;5093440;28;20107;-53
2021/12/30 00:21:23;;;;;;;9.95;7.85;;;5.60;99.90;;;;;;5092950;28;20031;-54
2021/12/30 00:23:49;;;;;;;11.45;7.97;;;5.50;99.90;;;;;;5093042;28;20028;-53
2021/12/30 00:26:16;;;;;;;10.10;8.10;;;5.60;99.90;;;;;;5092670;28;20055;-54
2021/12/30 00:28:41;;;;;;;10.00;7.60;;;5.60;99.90;;;;;;5093514;28;20383;-52
2021/12/30 00:31:07;;;;;;;10.65;8.38;;;5.60;99.90;;;;;;5093856;28;20038;-53
2021/12/30 00:33:34;;;;;;;10.98;7.78;;;5.60;99.90;;;;;;5093961;28;20892;-54
2021/12/30 00:36:02;;;;;;;8.35;7.55;;;5.60;99.90;;;;;;5093569;28;20711;-52
2021/12/30 00:38:28;;;;;;;10.40;9.27;;;5.70;99.90;;;;;;5093123;28;20024;-52
2021/12/30 00:40:54;;;;;;;11.80;10.60;;;5.70;99.90;;;;;;5094032;28;20020;-54
2021/12/30 00:43:20;;;;;;;10.77;9.65;;;5.80;99.90;;;;;;5092978;28;20027;-55
2021/12/30 00:45:46;;;;;;;9.00;7.82;;;5.80;99.90;;;;;;5092200;28;20028;-55
2021/12/30 00:48:11;;;;;;;10.73;8.90;;;5.80;99.90;;;;;;5093231;28;20712;-53
2021/12/30 00:50:39;;;;;;;8.70;6.78;;;5.80;99.90;;;;;;5092178;28;20033;-52
2021/12/30 00:53:06;;;;;;;6.30;5.70;;;5.90;99.90;;;;;;5090815;28;20490;-55
2021/12/30 00:55:33;;;;;;;8.10;5.63;;;6.00;99.90;;;;;;5073497;28;20048;-53
2021/12/30 00:57:59;;;;;;;8.07;5.47;;;6.00;99.90;;;;;;5091711;28;20427;-56
2021/12/30 01:00:25;;;;;;;9.65;5.85;;;6.10;99.90;;;;;;5091590;28;20043;-52
2021/12/30 01:02:51;;;;;;;6.82;4.82;;;6.10;99.90;;;;;;5091672;28;20031;-51
2021/12/30 01:05:17;;;;;;;4.93;4.53;;;6.30;99.90;;;;;;5072623;28;20038;-52
2021/12/30 01:07:43;;;;;;;5.30;4.80;;;6.30;99.90;;;;;;5092319;28;20239;-51
2021/12/30 01:10:12;;;;;;;5.40;4.45;;;6.30;99.90;;;;;;5092698;28;20027;-51
2021/12/30 01:12:38;;;;;;;4.80;4.38;;;6.40;99.90;;;;;;5091910;28;20024;-52
2021/12/30 01:15:09;;;;;;;5.32;4.82;;;6.40;99.90;;;;;;5091292;28;20027;-53
2021/12/30 01:17:55;;;;;;;4.95;4.55;;;6.40;99.90;;;;;;5091724;28;20028;-55
2021/12/30 01:20:21;;;;;;;5.40;4.90;;;6.40;99.90;;;;;;5092328;28;20036;-51
2021/12/30 01:22:49;;;;;;;6.93;6.32;;;6.30;99.90;;;;;;5091783;28;20028;-51
2021/12/30 01:25:15;;;;;;;7.05;6.07;;;6.40;99.90;;;;;;5090431;28;20028;-55
2021/12/30 01:27:41;;;;;;;6.93;6.15;;;6.30;99.90;;;;;;5092700;28;20020;-55
2021/12/30 01:30:12;;;;;;;5.38;4.97;;;6.30;99.90;;;;;;5093097;28;20028;-54
2021/12/30 01:32:38;;;;;;;7.07;4.70;;;6.40;99.90;;;;;;5092387;28;20110;-55
2021/12/30 01:35:08;;;;;;;3.83;3.53;;;6.40;99.90;;;;;;5092240;28;20047;-52
2021/12/30 01:37:33;;;;;;;5.50;4.05;;;6.50;99.90;;;;;;5061311;28;20036;-51
2021/12/30 01:39:59;;;;;;;4.90;4.53;;;6.70;99.90;;;;;;5072655;28;20460;-52
2021/12/30 01:42:25;;;;;;;3.70;3.40;;;6.60;99.90;;;;;;5085351;28;20111;-51
2021/12/30 01:44:50;;;;;;;3.95;3.55;;;6.60;99.90;;;;;;5091802;28;20670;-51
2021/12/30 01:47:16;;;;;;;3.42;3.13;;;6.70;99.90;;;;;;5092809;28;20032;-52
2021/12/30 01:49:42;;;;;;;3.28;3.00;;;6.80;99.90;;;;;;5091447;28;20028;-51
2021/12/30 01:52:08;;;;;;;3.28;3.08;;;6.80;99.90;;;;;;5089528;28;20032;-52
2021/12/30 01:54:34;;;;;;;3.22;3.03;;;6.80;99.90;;;;;;5089317;28;20036;-53
2021/12/30 01:57:03;;;;;;;3.95;3.58;;;6.90;99.90;;;;;;5091720;28;20585;-52
2021/12/30 01:59:29;;;;;;;3.85;3.55;;;6.90;99.90;;;;;;5091976;28;20081;-52
2021/12/30 02:01:57;;;;;;;3.33;3.03;;;6.90;99.90;;;;;;5090872;28;20033;-52
2021/12/30 02:04:27;;;;;;;4.15;3.83;;;7.00;99.90;;;;;;5089976;28;20042;-54
2021/12/30 02:06:54;;;;;;;3.33;3.13;;;6.90;99.90;;;;;;5073764;28;20069;-54
2021/12/30 02:09:21;;;;;;;3.25;3.05;;;7.00;99.90;;;;;;5090860;28;20113;-53
2021/12/30 02:11:48;;;;;;;3.30;3.10;;;7.00;99.90;;;;;;5090276;28;20036;-51
2021/12/30 02:14:14;;;;;;;3.30;3.00;;;7.00;99.90;;;;;;5090360;28;20027;-52
2021/12/30 02:16:40;;;;;;;3.05;2.85;;;7.00;99.90;;;;;;5090297;28;20107;-50
2021/12/30 02:19:06;;;;;;;2.92;2.72;;;7.10;99.90;;;;;;5090721;28;20020;-52
2021/12/30 02:21:32;;;;;;;4.68;3.00;;;7.10;99.90;;;;;;5066827;28;20035;-51
2021/12/30 02:23:58;;;;;;;3.30;3.10;;;7.20;99.90;;;;;;5077361;28;20583;-51
2021/12/30 02:26:24;;;;;;;2.88;2.67;;;7.10;99.90;;;;;;5090383;28;20028;-53
2021/12/30 02:28:50;;;;;;;2.25;2.15;;;7.20;99.90;;;;;;5090744;28;20032;-53
2021/12/30 02:31:21;;;;;;;2.20;2.10;;;7.20;99.90;;;;;;5090526;28;20031;-52
2021/12/30 02:33:47;;;;;;;3.10;2.85;;;7.30;99.90;;;;;;5090705;28;20020;-53
2021/12/30 02:36:16;;;;;;;2.35;2.25;;;7.30;99.90;;;;;;5090779;28;20024;-52
2021/12/30 02:38:45;;;;;;;1.80;1.70;;;7.40;99.90;;;;;;5090272;28;20522;-52
2021/12/30 02:41:17;;;;;;;2.13;2.03;;;7.40;99.90;;;;;;5090444;28;20479;-52
2021/12/30 02:43:44;;;;;;;1.95;1.85;;;7.50;99.90;;;;;;5090309;28;20117;-51
2021/12/30 02:46:10;;;;;;;2.10;2.00;;;7.50;99.90;;;;;;5091009;28;20024;-53
2021/12/30 02:48:37;;;;;;;2.20;1.92;;;7.60;99.90;;;;;;5091656;28;20413;-52
2021/12/30 02:51:06;;;;;;;1.42;1.42;;;7.60;99.90;;;;;;5091255;28;20407;-52
2021/12/30 02:53:32;;;;;;;2.10;2.00;;;7.60;99.90;;;;;;5091497;28;20017;-52
2021/12/30 02:55:58;;;;;;;1.50;1.50;;;7.60;99.90;;;;;;5091524;28;20044;-51
2021/12/30 02:58:25;;;;;;;2.00;1.90;;;7.70;99.90;;;;;;5091243;28;20031;-52
2021/12/30 03:00:59;;;;;;;1.50;1.50;;;7.70;99.90;;;;;;5091687;28;20505;-54
2021/12/30 03:03:24;;;;;;;;;;;7.70;99.90;;;;;;5074271;28;20039;-52
2021/12/30 03:05:59;;;;;;;1.50;1.50;;;7.80;99.90;;;;;;5091755;28;19904;-55
2021/12/30 03:08:25;;;;;;;1.48;1.45;;;7.90;99.90;;;;;;5091215;28;20063;-52
2021/12/30 03:10:52;;;;;;;1.45;1.45;;;7.90;99.90;;;;;;5073175;28;20071;-52
2021/12/30 03:13:19;;;;;;;1.55;1.55;;;8.00;99.90;;;;;;5091273;28;20032;-51
2021/12/30 03:15:46;;;;;;;1.58;1.58;;;8.10;99.90;;;;;;5090673;28;20027;-53
2021/12/30 03:18:13;;;;;;;2.65;1.90;;;8.10;99.90;;;;;;5091401;28;20032;-53
2021/12/30 03:20:39;;;;;;;2.22;2.13;;;8.30;99.90;;;;;;5091065;28;20051;-53
2021/12/30 03:23:17;;;;;;;2.72;2.50;;;8.60;99.90;;;;;;5091077;28;20060;-54
2021/12/30 03:25:42;;;;;;;2.10;1.92;;;8.90;99.90;;;;;;5087933;28;20097;-51
2021/12/30 03:28:08;;;;;;;4.05;2.60;;;9.10;99.90;;;;;;5089516;28;20028;-53
2021/12/30 03:30:34;;;;;;;2.15;2.03;;;9.30;99.90;;;;;;5089493;28;21606;-54
2021/12/30 03:32:59;;;;;;;3.28;2.30;;;9.40;99.90;;;;;;5089401;28;20143;-55
2021/12/30 03:35:25;;;;;;;2.30;2.00;;;9.50;99.90;;;;;;5091425;28;20047;-51
2021/12/30 03:37:51;;;;;;;2.00;1.60;;;9.60;99.90;;;;;;5092086;28;20024;-55
2021/12/30 03:40:17;;;;;;;3.25;1.50;;;9.70;99.90;;;;;;5091943;28;20028;-54
2021/12/30 03:42:44;;;;;;;1.70;1.60;;;9.70;99.90;;;;;;5092289;28;20024;-53
2021/12/30 03:45:12;;;;;;;1.33;1.33;;;9.70;99.90;;;;;;5092386;28;20020;-52
2021/12/30 03:47:42;;;;;;;1.40;1.30;;;9.80;99.90;;;;;;5094858;28;20040;-55
2021/12/30 03:50:17;;;;;;;1.38;1.38;;;9.90;99.90;;;;;;5094879;28;20024;-53
2021/12/30 03:52:43;;;;;;;1.20;1.20;;;9.90;99.90;;;;;;5095098;28;20035;-52
2021/12/30 03:55:09;;;;;;;1.17;1.17;;;9.90;99.90;;;;;;5094461;28;20044;-54
2021/12/30 03:57:35;;;;;;;2.53;1.40;;;9.90;99.90;;;;;;5094515;28;20331;-55
2021/12/30 04:00:01;;;;;;;1.30;1.30;;;9.90;99.90;;;;;;5094562;28;20115;-54
2021/12/30 04:02:26;;;;;;;10.32;3.33;;;10.00;99.90;;;;;;5094414;28;20061;-52
2021/12/30 04:04:52;;;;;;;4.60;2.05;;;9.90;99.90;;;;;;5094668;28;20028;-54
2021/12/30 04:07:18;;;;;;;3.65;2.20;;;9.90;99.90;;;;;;5093944;28;20105;-54
2021/12/30 04:09:43;;;;;;;10.48;4.50;;;9.90;99.90;;;;;;5094082;28;20153;-52
2021/12/30 04:12:09;;;;;;;7.95;4.47;;;9.90;99.90;;;;;;5094329;28;20081;-53
2021/12/30 04:14:36;;;;;;;3.47;2.60;;;10.00;99.90;;;;;;5094409;28;20488;-54
2021/12/30 04:17:02;;;;;;;7.47;4.50;;;10.10;99.90;;;;;;5094450;28;20369;-54
2021/12/30 04:19:28;;;;;;;10.43;4.03;;;10.10;99.90;;;;;;5093903;28;20043;-53
2021/12/30 04:21:56;;;;;;;5.00;3.42;;;10.10;99.90;;;;;;5094182;28;20039;-51
2021/12/30 04:24:22;;;;;;;5.50;3.13;;;10.20;99.90;;;;;;5094178;28;20409;-53
2021/12/30 04:26:50;;;;;;;8.45;4.15;;;10.30;99.90;;;;;;5094157;28;20028;-54
2021/12/30 04:29:17;;;;;;;11.57;4.80;;;10.30;99.90;;;;;;5094240;28;20016;-52
2021/12/30 04:31:43;;;;;;;2.65;2.13;;;10.40;99.90;;;;;;5093629;28;20024;-54
2021/12/30 04:34:09;;;;;;;26.30;10.50;;;10.50;99.90;;;;;;5075854;28;20028;-52
2021/12/30 04:36:34;;;;;;;1.50;1.40;;;10.40;99.90;;;;;;5094012;28;20077;-51
2021/12/30 04:39:00;;;;;;;19.00;8.38;;;10.40;99.90;;;;;;5093623;28;20055;-52
2021/12/30 04:41:25;;;;;;;15.25;5.35;;;10.50;99.90;;;;;;5093717;28;20070;-52
2021/12/30 04:43:51;;;;;;;30.05;10.13;;;10.40;99.90;;;;;;5093647;28;20028;-53
2021/12/30 04:46:17;;;;;;;1.20;1.10;;;10.50;99.90;;;;;;5093404;28;20024;-54
2021/12/30 04:48:43;;;;;;;10.23;4.38;;;10.50;99.90;;;;;;5093852;28;20032;-52
2021/12/30 04:51:08;;;;;;;24.67;7.20;;;10.70;99.90;;;;;;5093564;28;20089;-52
2021/12/30 04:53:34;;;;;;;20.85;7.80;;;10.60;99.90;;;;;;5093632;28;20028;-52
2021/12/30 04:56:00;;;;;;;6.72;3.08;;;10.60;99.90;;;;;;5093596;28;20642;-54
2021/12/30 04:58:26;;;;;;;2.47;2.10;;;10.60;99.90;;;;;;5093364;28;20032;-53
2021/12/30 05:00:51;;;;;;;2.20;2.10;;;10.70;99.90;;;;;;5093371;28;20363;-52
2021/12/30 05:03:17;;;;;;;3.95;3.13;;;10.70;99.90;;;;;;5093336;28;20024;-54
2021/12/30 05:05:45;;;;;;;3.08;2.78;;;10.80;99.90;;;;;;5093580;28;20061;-54
2021/12/30 05:08:12;;;;;;;3.63;3.25;;;10.80;99.90;;;;;;5093126;28;20020;-53
2021/12/30 05:10:38;;;;;;;2.13;2.00;;;10.80;99.90;;;;;;5092918;28;20029;-54
2021/12/30 05:13:05;;;;;;;3.80;2.38;;;10.80;99.90;;;;;;5075044;28;20032;-54
2021/12/30 05:15:32;;;;;;;2.10;2.00;;;10.80;99.90;;;;;;5066133;28;20024;-54
2021/12/30 05:17:57;;;;;;;3.53;2.90;;;10.80;99.90;;;;;;5093364;28;20036;-55
2021/12/30 05:20:23;;;;;;;2.88;2.67;;;10.90;99.90;;;;;;5092741;28;20024;-54
2021/12/30 05:22:49;;;;;;;19.15;10.50;;;10.80;99.90;;;;;;5092985;28;20459;-54
2021/12/30 05:25:18;;;;;;;5.07;3.65;;;10.80;99.90;;;;;;5093202;28;20020;-52
2021/12/30 05:27:44;;;;;;;4.45;4.10;;;10.80;99.90;;;;;;5093002;28;20153;-53
2021/12/30 05:30:11;;;;;;;3.42;1.95;;;10.80;99.90;;;;;;5092645;28;20028;-54
2021/12/30 05:32:37;;;;;;;5.03;2.03;;;10.90;99.90;;;;;;5092651;28;20348;-54
2021/12/30 05:35:05;;;;;;;2.30;2.10;;;10.90;99.90;;;;;;5092877;28;20043;-54
2021/12/30 05:37:30;;;;;;;3.13;2.08;;;11.10;99.90;;;;;;5092568;28;20028;-54
2021/12/30 05:39:56;;;;;;;2.58;2.00;;;11.00;99.90;;;;;;5092273;28;20058;-54
2021/12/30 05:42:23;;;;;;;4.63;2.10;;;11.00;99.90;;;;;;5092667;28;20428;-51
2021/12/30 05:44:53;;;;;;;2.42;2.10;;;11.00;99.90;;;;;;5092409;28;20606;-55
2021/12/30 05:47:19;;;;;;;1.92;1.83;;;11.00;99.90;;;;;;5092333;28;20165;-53
2021/12/30 05:49:45;;;;;;;2.72;2.08;;;11.00;99.90;;;;;;5092541;28;20119;-52
2021/12/30 05:52:11;;;;;;;1.85;1.70;;;11.00;99.90;;;;;;5064834;28;20033;-54
2021/12/30 05:54:37;;;;;;;3.05;1.80;;;11.00;99.90;;;;;;5054181;28;20070;-52
2021/12/30 05:57:03;;;;;;;5.25;1.92;;;11.00;99.90;;;;;;5079697;28;20062;-51
2021/12/30 05:59:29;;;;;;;3.53;1.65;;;10.80;99.90;;;;;;5092115;28;20051;-55
2021/12/30 06:01:54;;;;;;;2.70;1.60;;;10.80;99.90;;;;;;5092375;28;20593;-55
2021/12/30 06:04:20;;;;;;;2.17;1.75;;;10.80;99.90;;;;;;5091954;28;20032;-51
2021/12/30 06:06:46;;;;;;;6.68;2.15;;;10.80;99.90;;;;;;5092089;28;20028;-53
2021/12/30 06:09:11;;;;;;;4.88;2.35;;;10.70;99.90;;;;;;5092408;28;20039;-54
2021/12/30 06:11:37;;;;;;;5.07;2.97;;;10.70;99.90;;;;;;5091299;28;20032;-53
2021/12/30 06:14:03;;;;;;;5.22;2.95;;;10.70;99.90;;;;;;5091851;28;20024;-55
2021/12/30 06:16:29;;;;;;;3.55;2.50;;;10.70;99.90;;;;;;5072796;28;20020;-52
2021/12/30 06:18:57;;;;;;;5.75;3.50;;;10.80;99.90;;;;;;5090540;28;20089;-52
2021/12/30 06:21:23;;;;;;;4.95;2.70;;;10.80;99.90;;;;;;5090439;28;20027;-52
2021/12/30 06:23:48;;;;;;;11.00;4.55;;;10.80;99.90;;;;;;5089941;28;20028;-52
2021/12/30 06:26:14;;;;;;;6.63;3.42;;;10.80;99.90;;;;;;5091559;28;20024;-52
2021/12/30 06:28:40;;;;;;;3.00;1.95;;;10.80;99.90;;;;;;5090817;28;20489;-52
2021/12/30 06:31:05;;;;;;;8.35;5.25;;;10.80;99.90;;;;;;5088653;28;20070;-51
2021/12/30 06:33:31;;;;;;;12.88;9.23;;;10.80;99.90;;;;;;5072857;28;20063;-51
2021/12/30 06:35:57;;;;;;;7.82;5.70;;;10.80;99.90;;;;;;5071180;28;20430;-51
2021/12/30 06:38:22;;;;;;;2.33;2.13;;;10.80;99.90;;;;;;5089884;28;20024;-55
2021/12/30 06:40:48;;;;;;;1.73;1.63;;;10.80;99.90;;;;;;5090399;28;20424;-52
2021/12/30 06:43:14;;;;;;;2.30;2.10;;;10.80;99.90;;;;;;5090266;28;20440;-53
2021/12/30 06:45:39;;;;;;;1.92;1.83;;;10.80;99.90;;;;;;5090166;28;20115;-54
2021/12/30 06:48:06;;;;;;;3.28;2.22;;;10.90;99.90;;;;;;5089738;28;20024;-52
2021/12/30 06:50:33;;;;;;;6.40;2.10;;;11.00;99.90;;;;;;5089788;28;20036;-53
2021/12/30 06:52:59;;;;;;;1.58;1.48;;;11.10;99.90;;;;;;5090344;28;20028;-52
2021/12/30 06:55:24;;;;;;;2.95;2.50;;;11.10;99.90;;;;;;5090476;28;20181;-51
2021/12/30 06:57:50;;;;;;;3.00;2.55;;;11.00;99.90;;;;;;5090922;28;20035;-54
2021/12/30 07:00:16;;;;;;;2.00;1.80;;;11.00;99.90;;;;;;5091170;28;20028;-55
2021/12/30 07:02:43;;;;;;;4.50;1.80;;;11.00;99.90;;;;;;5091531;28;20351;-52
2021/12/30 07:05:10;;;;;;;2.97;2.10;;;11.10;99.90;;;;;;5091724;28;20375;-52
2021/12/30 07:07:36;;;;;;;3.28;1.77;;;11.00;99.90;;;;;;5090837;28;20024;-51
2021/12/30 07:10:02;;;;;;;2.45;1.90;;;11.10;99.90;;;;;;5091227;28;20445;-53
2021/12/30 07:12:28;;;;;;;1.77;1.67;;;11.10;99.90;;;;;;5090753;28;20085;-51
2021/12/30 07:14:53;;;;;;;2.45;2.25;;;11.20;99.90;;;;;;5091250;28;20020;-54
2021/12/30 07:17:19;;;;;;;2.40;1.67;;;11.20;99.90;;;;;;5090141;28;20052;-51
2021/12/30 07:19:45;;;;;;;1.70;1.60;;;11.20;99.90;;;;;;5091037;28;20039;-54
2021/12/30 07:22:10;;;;;;;3.17;1.70;;;11.20;99.90;;;;;;5074743;28;20033;-54
2021/12/30 07:24:36;;;;;;;1.58;1.48;;;11.20;99.90;;;;;;5090744;28;20566;-54
2021/12/30 07:27:02;;;;;;;3.67;3.38;;;11.20;99.90;;;;;;5091086;28;20028;-54
2021/12/30 07:29:27;;;;;;;3.03;2.33;;;11.20;99.90;;;;;;5090937;28;20022;-53
2021/12/30 07:31:53;;;;;;;5.15;2.05;;;11.10;99.90;;;;;;5091025;28;20032;-53
2021/12/30 07:34:19;;;;;;;4.47;3.70;;;11.10;99.90;;;;;;5091038;28;20031;-52
2021/12/30 07:36:44;;;;;;;1.88;1.77;;;11.00;99.90;;;;;;5090828;28;20351;-56
2021/12/30 07:39:10;;;;;;;3.20;2.42;;;11.00;99.90;;;;;;5091100;28;20035;-54
2021/12/30 07:41:36;;;;;;;15.13;8.10;;;11.00;99.90;;;;;;5090822;28;20043;-52
2021/12/30 07:44:02;;;;;;;2.80;2.05;;;11.00;99.90;;;;;;5091038;28;20157;-56
2021/12/30 07:46:28;;;;;;;2.58;2.40;;;11.00;99.90;;;;;;5090384;28;20102;-55
2021/12/30 07:48:54;;;;;;;3.05;1.70;;;11.00;99.90;;;;;;5065377;28;20123;-53
2021/12/30 07:51:19;;;;;;;2.67;1.95;;;11.00;99.90;;;;;;5081812;28;20040;-51
2021/12/30 07:53:45;;;;;;;2.20;1.92;;;11.00;99.90;;;;;;5091115;28;20043;-53
2021/12/30 07:56:11;;;;;;;1.70;1.60;;;11.00;99.90;;;;;;5090751;28;20031;-52
2021/12/30 07:58:37;;;;;;;2.30;2.10;;;11.10;99.90;;;;;;5090403;28;20020;-52
2021/12/30 08:01:03;;;;;;;1.88;1.60;;;11.10;99.90;;;;;;5090178;28;20637;-51
2021/12/30 08:03:28;;;;;;;1.60;1.50;;;11.00;99.90;;;;;;5090434;28;20032;-53
2021/12/30 08:05:54;;;;;;;1.80;1.67;;;11.00;99.90;;;;;;5090395;28;20394;-54
2021/12/30 08:08:19;;;;;;;1.70;1.60;;;11.10;99.90;;;;;;5090036;28;20039;-55
2021/12/30 08:10:45;;;;;;;3.80;1.48;;;11.10;99.90;;;;;;5072322;28;20115;-53
2021/12/30 08:13:11;;;;;;;1.98;1.45;;;11.10;99.90;;;;;;5089682;28;20138;-51
2021/12/30 08:15:36;;;;;;;3.50;1.40;;;11.20;99.90;;;;;;5072240;28;20047;-52
2021/12/30 08:18:02;;;;;;;1.50;1.40;;;11.20;99.90;;;;;;5072769;28;20051;-55
2021/12/30 08:20:28;;;;;;;1.85;1.52;;;11.20;99.90;;;;;;5092276;28;20036;-50
2021/12/30 08:22:54;;;;;;;1.90;1.60;;;11.10;99.90;;;;;;5094249;28;20024;-51
2021/12/30 08:25:21;;;;;;;2.47;2.05;;;11.10;99.90;;;;;;5094157;28;20024;-54
2021/12/30 08:27:48;;;;;;;2.47;2.28;;;11.10;99.90;;;;;;5094177;28;20032;-52
2021/12/30 08:30:16;;;;;;;5.32;3.25;;;11.10;99.90;;;;;;5094209;28;20118;-56
2021/12/30 08:32:43;;;;;;;2.38;1.77;;;11.20;99.90;;;;;;5094305;28;20020;-51
2021/12/30 08:35:10;;;;;;;13.68;6.03;;;11.20;99.90;;;;;;5094446;28;20020;-54
2021/12/30 08:37:36;;;;;;;18.88;8.55;;;11.20;99.90;;;;;;5093881;28;20054;-51
2021/12/30 08:40:04;;;;;;;5.97;2.30;;;11.30;99.90;;;;;;5092854;28;20052;-52
2021/12/30 08:42:30;;;;;;;99.20;33.38;;;11.40;99.90;;;;;;5091945;28;20055;-51
2021/12/30 08:44:58;;;;;;;19.45;7.13;;;11.40;99.90;;;;;;5073110;28;20063;-52
2021/12/30 08:47:25;;;;;;;44.42;14.25;;;11.40;99.90;;;;;;5092332;28;20429;-52
2021/12/30 08:49:53;;;;;;;29.42;9.45;;;11.40;99.90;;;;;;5092611;28;20035;-51
2021/12/30 08:52:22;;;;;;;39.67;11.68;;;11.50;99.90;;;;;;5092434;28;20023;-52
2021/12/30 08:54:49;;;;;;;36.42;11.10;;;11.50;99.90;;;;;;5092354;28;20068;-53
2021/12/30 08:57:16;;;;;;;44.92;14.38;;;11.70;99.90;;;;;;5091890;28;20312;-54
2021/12/30 08:59:42;;;;;;;58.55;17.65;;;11.70;99.90;;;;;;5092001;28;20024;-51
2021/12/30 09:02:08;;;;;;;3.15;1.80;;;11.80;99.90;;;;;;5092555;28;20686;-52
2021/12/30 09:04:34;;;;;;;19.10;6.65;;;11.90;99.90;;;;;;5092193;28;20028;-51
2021/12/30 09:07:01;;;;;;;5.32;2.08;;;11.80;99.90;;;;;;5091831;28;20031;-52
2021/12/30 09:09:27;;;;;;;33.58;9.10;;;11.90;99.90;;;;;;5091922;28;20518;-54
2021/12/30 09:11:54;;;;;;;6.45;2.30;;;12.00;99.90;;;;;;5092199;28;20421;-52
2021/12/30 09:14:20;;;;;;;124.07;35.00;;;12.00;99.90;;;;;;5092189;28;20028;-51
2021/12/30 09:16:48;;;;;;;2.85;2.20;;;11.90;99.90;;;;;;5092359;28;20299;-52
2021/12/30 09:19:14;;;;;;;43.65;13.73;;;12.00;99.90;;;;;;5091896;28;20437;-53
2021/12/30 09:21:40;;;;;;;6.80;3.97;;;12.00;99.90;;;;;;5091888;28;20035;-51
2021/12/30 09:24:08;;;;;;;5.55;3.17;;;12.00;99.90;;;;;;5074080;28;20303;-52
2021/12/30 09:26:34;;;;;;;4.63;2.60;;;11.90;99.90;;;;;;5091738;28;20532;-51
2021/12/30 09:29:00;;;;;;;3.13;2.83;;;12.00;99.90;;;;;;5091633;28;20103;-52
2021/12/30 09:31:28;;;;;;;6.00;4.03;;;12.00;99.90;;;;;;5090579;28;20032;-51
2021/12/30 09:33:55;;;;;;;2.45;2.10;;;12.00;99.90;;;;;;5091546;28;20429;-56
2021/12/30 09:36:22;;;;;;;1.40;1.30;;;12.00;99.90;;;;;;5073136;28;20051;-51
2021/12/30 09:38:48;;;;;;;2.28;1.70;;;12.00;99.90;;;;;;5072243;28;20115;-55
2021/12/30 09:41:14;;;;;;;2.33;2.13;;;12.00;99.90;;;;;;5091553;28;20127;-53
2021/12/30 09:43:40;;;;;;;4.20;1.60;;;11.90;99.90;;;;;;5091723;28;20028;-54
2021/12/30 09:46:05;;;;;;;1.27;1.20;;;11.90;99.90;;;;;;5091546;28;20087;-54
2021/12/30 09:48:31;;;;;;;2.72;1.75;;;11.80;99.90;;;;;;5091548;28;20054;-54
2021/12/30 09:50:58;;;;;;;2.65;1.73;;;11.90;99.90;;;;;;5091330;28;20032;-52
2021/12/30 09:53:25;;;;;;;2.72;2.22;;;11.90;99.90;;;;;;5091312;28;20028;-51
2021/12/30 09:55:55;;;;;;;2.88;1.90;;;11.80;99.90;;;;;;5091304;28;20055;-51
2021/12/30 09:58:21;;;;;;;1.30;1.30;;;11.90;99.90;;;;;;5091075;28;20482;-52
2021/12/30 10:00:47;;;;;;;2.33;1.35;;;12.00;99.90;;;;;;5090943;28;20470;-52
2021/12/30 10:03:12;;;;;;;1.20;1.20;;;12.10;99.90;;;;;;5091382;28;20028;-50
2021/12/30 10:05:40;;;;;;;1.48;1.38;;;12.10;99.90;;;;;;5091264;28;20090;-53
2021/12/30 10:08:16;;;;;;;3.63;2.00;;;12.30;99.90;;;;;;5090793;28;20036;-54
2021/12/30 10:10:50;;;;;;;1.50;1.40;;;12.20;99.90;;;;;;5090709;28;20109;-51
2021/12/30 10:13:23;;;;;;;27.98;14.18;;;12.10;99.90;;;;;;5091034;28;20024;-53
2021/12/30 10:15:53;;;;;;;2.00;1.90;;;12.10;99.90;;;;;;5091336;28;20031;-51
2021/12/30 10:18:19;;;;;;;2.72;2.53;;;12.20;99.90;;;;;;5090810;28;20119;-55
2021/12/30 10:20:46;;;;;;;1.45;1.35;;;12.40;99.90;;;;;;5091376;28;20118;-53
2021/12/30 10:23:19;;;;;;;1.45;1.35;;;12.50;99.90;;;;;;5091003;28;20115;-53
2021/12/30 10:25:48;;;;;;;1.20;1.20;;;12.80;99.90;;;;;;5091265;28;20103;-52
2021/12/30 10:28:24;;;;;;;1.08;1.08;;;12.90;99.90;;;;;;5090527;28;20056;-51
2021/12/30 10:31:11;;;;;;;1.45;1.45;;;13.30;99.90;;;;;;5088592;28;20073;-54
2021/12/30 10:33:55;;;;;;;1.42;1.38;;;13.50;99.90;;;;;;5090463;28;20021;-52
2021/12/30 10:36:26;;;;;;;1.50;1.40;;;13.30;99.90;;;;;;5091278;28;20145;-52
2021/12/30 10:38:54;;;;;;;1.48;1.20;;;13.20;99.90;;;;;;5091643;28;20016;-52
2021/12/30 10:41:24;;;;;;;1.10;1.10;;;13.10;99.90;;;;;;5090316;28;20108;-52
2021/12/30 10:43:55;;;;;;;1.50;1.40;;;12.90;99.90;;;;;;5090377;28;20031;-52
2021/12/30 10:46:27;;;;;;;1.35;1.20;;;12.80;99.90;;;;;;5090072;28;20044;-51
2021/12/30 10:48:55;;;;;;;1.27;1.17;;;13.00;99.90;;;;;;5070525;28;20024;-55
2021/12/30 10:51:35;;;;;;;1.35;1.30;;;12.90;99.90;;;;;;5077737;28;20020;-54
2021/12/30 10:54:18;;;;;;;1.67;1.48;;;12.90;99.90;;;;;;5090457;28;20043;-51
2021/12/30 10:57:07;;;;;;;1.38;1.30;;;12.80;99.90;;;;;;5090230;28;20045;-53
2021/12/30 10:59:47;;;;;;;1.10;1.10;;;12.60;99.90;;;;;;5090217;28;20588;-52
2021/12/30 11:02:16;;;;;;;2.13;2.03;;;12.60;99.90;;;;;;5089382;28;20111;-51
2021/12/30 11:04:42;;;;;;;2.33;2.20;;;12.50;99.90;;;;;;5090414;28;20109;-52
2021/12/30 11:07:10;;;;;;;1.10;1.10;;;12.40;99.90;;;;;;5089745;28;20074;-52
2021/12/30 11:09:44;;;;;;;1.98;1.80;;;12.40;99.90;;;;;;5090269;28;20114;-51
2021/12/30 11:12:09;;;;;;;2.22;2.10;;;12.40;99.90;;;;;;5090142;28;20333;-52
2021/12/30 11:14:37;;;;;;;1.00;1.00;;;12.30;99.90;;;;;;5089989;28;20032;-52
2021/12/30 11:17:06;;;;;;;1.40;1.30;;;12.40;99.90;;;;;;5090249;28;20059;-54
2021/12/30 11:19:35;;;;;;;2.45;1.20;;;12.40;99.90;;;;;;5090301;28;20020;-55
2021/12/30 11:22:05;;;;;;;2.35;1.98;;;12.30;99.90;;;;;;5090149;28;20047;-53
2021/12/30 11:24:32;;;;;;;1.70;1.60;;;12.20;99.90;;;;;;5089876;28;20031;-54
2021/12/30 11:26:59;;;;;;;3.10;2.33;;;12.10;99.90;;;;;;5090183;28;20032;-52
2021/12/30 11:29:25;;;;;;;2.28;2.15;;;12.20;99.90;;;;;;5090189;28;20474;-55
2021/12/30 11:31:51;;;;;;;3.33;3.03;;;12.10;99.90;;;;;;5089917;28;20103;-52
2021/12/30 11:34:21;;;;;;;3.58;2.47;;;12.00;99.90;;;;;;5089644;28;20031;-53
2021/12/30 11:36:47;;;;;;;5.60;5.10;;;12.00;99.90;;;;;;5089878;28;20040;-54
2021/12/30 11:39:15;;;;;;;3.60;3.20;;;12.00;99.90;;;;;;5090317;28;20020;-54
2021/12/30 11:41:46;;;;;;;4.20;2.70;;;12.00;99.90;;;;;;5063656;28;20021;-53
2021/12/30 11:44:51;;;;;;;2.08;1.77;;;12.00;99.90;;;;;;5083594;28;20357;-54
2021/12/30 11:47:32;;;;;;;2.83;1.70;;;12.10;99.90;;;;;;5007219;28;20392;-51
2021/12/30 11:50:00;;;;;;;1.60;1.50;;;12.10;99.90;;;;;;5007700;28;20029;-54
2021/12/30 11:52:52;;;;;;;1.70;1.63;;;12.10;99.90;;;;;;5043791;28;20044;-51
2021/12/30 11:55:44;;;;;;;1.88;1.77;;;12.10;99.90;;;;;;5070649;28;20372;-53
2021/12/30 11:58:29;;;;;;;1.30;1.20;;;12.10;99.90;;;;;;5091704;28;20652;-55
2021/12/30 12:01:24;;;;;;;1.20;1.15;;;12.10;99.90;;;;;;5076304;28;20032;-52
2021/12/30 12:03:53;;;;;;;1.88;1.20;;;12.20;99.90;;;;;;5083461;28;20032;-51
2021/12/30 12:06:25;;;;;;;2.75;1.05;;;12.10;99.90;;;;;;5082952;28;20378;-54
2021/12/30 12:09:03;;;;;;;1.27;1.25;;;12.30;99.90;;;;;;5082854;28;20111;-50
2021/12/30 12:11:31;;;;;;;1.88;1.15;;;12.10;99.90;;;;;;5083110;28;20036;-54
2021/12/30 12:14:27;;;;;;;1.25;1.02;;;12.10;99.90;;;;;;5083562;28;20028;-54
2021/12/30 12:16:56;;;;;;;1.42;1.33;;;12.10;99.90;;;;;;5082431;28;20368;-53
2021/12/30 12:19:31;;;;;;;3.22;2.00;;;12.20;99.90;;;;;;5082721;28;20085;-53
2021/12/30 12:21:57;;;;;;;19.27;9.43;;;12.20;99.90;;;;;;5084294;28;20063;-53
2021/12/30 12:24:23;;;;;;;1.20;1.10;;;12.10;99.90;;;;;;5082461;28;20090;-51
2021/12/30 12:26:54;;;;;;;11.52;5.22;;;12.20;99.90;;;;;;5083365;28;20495;-54
2021/12/30 12:29:35;;;;;;;10.68;6.45;;;12.20;99.90;;;;;;5083180;28;20063;-56
2021/12/30 12:32:10;;;;;;;13.80;7.75;;;12.20;99.90;;;;;;5082832;28;20028;-51
2021/12/30 12:34:50;;;;;;;1.38;1.30;;;12.10;99.90;;;;;;5083652;28;20020;-52
2021/12/30 12:37:39;;;;;;;57.25;33.63;;;12.10;99.90;;;;;;5082141;28;20164;-51
2021/12/30 12:40:27;;;;;;;46.13;28.60;;;12.10;99.90;;;;;;5083100;28;20024;-55
2021/12/30 12:43:05;;;;;;;19.63;10.75;;;12.10;99.90;;;;;;5083136;28;20546;-52
2021/12/30 12:45:49;;;;;;;3.65;2.70;;;11.90;99.90;;;;;;5083108;28;20115;-52
2021/12/30 12:48:17;;;;;;;1.73;1.45;;;11.90;99.90;;;;;;5082216;28;20435;-53
2021/12/30 12:51:04;;;;;;;32.47;15.85;;;11.80;99.90;;;;;;5082775;28;20548;-54
2021/12/30 12:53:33;;;;;;;1.00;1.00;;;11.80;99.90;;;;;;5083374;28;20059;-54